sensor_id;sensor_type;location;lat;lon;timestamp;pressure;altitude;pressure_sealevel;temperature;humidity
15263;BME280;7733;51.554;13.590;2023-11-19T00:00:50;100535.78;;;7.93;77.10
15263;BME280;7733;51.554;13.590;2023-11-19T00:03:17;100513.16;;;7.90;77.03
15263;BME280;7733;51.554;13.590;2023-11-19T00:05:43;100504.44;;;7.76;77.74
15263;BME280;7733;51.554;13.590;2023-11-19T00:08:10;100489.66;;;7.89;77.10
15263;BME280;7733;51.554;13.590;2023-11-19T00:10:35;100484.44;;;7.86;77.56
15263;BME280;7733;51.554;13.590;2023-11-19T00:13:01;100484.44;;;7.81;78.20
15263;BME280;7733;51.554;13.590;2023-11-19T00:15:28;100474.84;;;7.79;78.97
15263;BME280;7733;51.554;13.590;2023-11-19T00:17:54;100490.53;;;7.60;79.65
15263;BME280;7733;51.554;13.590;2023-11-19T00:20:20;100483.59;;;7.66;79.24
15263;BME280;7733;51.554;13.590;2023-11-19T00:22:48;100470.53;;;7.67;79.59
15263;BME280;7733;51.554;13.590;2023-11-19T00:25:17;100467.88;;;7.90;78.94
15263;BME280;7733;51.554;13.590;2023-11-19T00:27:43;100457.50;;;7.44;81.15
15263;BME280;7733;51.554;13.590;2023-11-19T00:30:13;100462.72;;;7.62;81.02
15263;BME280;7733;51.554;13.590;2023-11-19T00:32:40;100467.00;;;7.77;80.75
15263;BME280;7733;51.554;13.590;2023-11-19T00:35:06;100463.56;;;7.58;81.95
15263;BME280;7733;51.554;13.590;2023-11-19T00:37:50;100458.28;;;7.92;80.58
15263;BME280;7733;51.554;13.590;2023-11-19T00:40:16;100453.94;;;8.03;80.20
15263;BME280;7733;51.554;13.590;2023-11-19T00:42:43;100439.97;;;8.00;80.53
15263;BME280;7733;51.554;13.590;2023-11-19T00:45:09;100439.09;;;8.13;80.45
15263;BME280;7733;51.554;13.590;2023-11-19T00:47:35;100440.97;;;7.27;84.19
15263;BME280;7733;51.554;13.590;2023-11-19T00:50:02;100420.84;;;7.93;82.36
15263;BME280;7733;51.554;13.590;2023-11-19T00:52:28;100419.91;;;8.15;81.75
15263;BME280;7733;51.554;13.590;2023-11-19T00:54:54;100415.69;;;7.84;83.31
15263;BME280;7733;51.554;13.590;2023-11-19T00:57:20;100413.94;;;7.84;84.06
15263;BME280;7733;51.554;13.590;2023-11-19T00:59:45;100397.38;;;7.79;84.63
15263;BME280;7733;51.554;13.590;2023-11-19T01:02:13;100396.50;;;7.80;84.00
15263;BME280;7733;51.554;13.590;2023-11-19T01:04:40;100382.59;;;7.77;85.20
15263;BME280;7733;51.554;13.590;2023-11-19T01:07:05;100387.84;;;7.74;85.31
15263;BME280;7733;51.554;13.590;2023-11-19T01:09:33;100386.94;;;7.79;84.92
15263;BME280;7733;51.554;13.590;2023-11-19T01:12:01;100382.63;;;7.71;86.38
15263;BME280;7733;51.554;13.590;2023-11-19T01:14:28;100361.75;;;7.58;86.39
15263;BME280;7733;51.554;13.590;2023-11-19T01:16:54;100351.25;;;7.86;85.52
15263;BME280;7733;51.554;13.590;2023-11-19T01:19:21;100368.72;;;7.69;87.57
15263;BME280;7733;51.554;13.590;2023-11-19T01:21:50;100363.47;;;7.70;87.24
15263;BME280;7733;51.554;13.590;2023-11-19T01:24:17;100346.03;;;7.86;86.22
15263;BME280;7733;51.554;13.590;2023-11-19T01:26:44;100336.44;;;7.89;86.25
15263;BME280;7733;51.554;13.590;2023-11-19T01:29:16;100301.75;;;7.55;87.38
15263;BME280;7733;51.554;13.590;2023-11-19T01:31:43;100301.78;;;7.46;88.35
15263;BME280;7733;51.554;13.590;2023-11-19T01:34:09;100325.31;;;7.16;89.38
15263;BME280;7733;51.554;13.590;2023-11-19T01:36:35;100303.53;;;7.33;89.38
15263;BME280;7733;51.554;13.590;2023-11-19T01:39:01;100299.97;;;7.60;88.06
15263;BME280;7733;51.554;13.590;2023-11-19T01:41:27;100289.56;;;7.62;88.09
15263;BME280;7733;51.554;13.590;2023-11-19T01:43:53;100278.28;;;7.52;88.43
15263;BME280;7733;51.554;13.590;2023-11-19T01:46:19;100273.97;;;7.36;89.75
15263;BME280;7733;51.554;13.590;2023-11-19T01:48:46;100271.41;;;7.27;89.55
15263;BME280;7733;51.554;13.590;2023-11-19T01:51:13;100260.16;;;7.05;89.33
15263;BME280;7733;51.554;13.590;2023-11-19T01:53:43;100240.97;;;7.21;88.58
15263;BME280;7733;51.554;13.590;2023-11-19T01:56:12;100257.38;;;7.52;88.79
15263;BME280;7733;51.554;13.590;2023-11-19T01:58:40;100246.13;;;7.40;88.94
15263;BME280;7733;51.554;13.590;2023-11-19T02:01:07;100242.72;;;7.15;90.47
15263;BME280;7733;51.554;13.590;2023-11-19T02:03:34;100224.38;;;7.36;89.27
15263;BME280;7733;51.554;13.590;2023-11-19T02:06:00;100201.75;;;7.40;88.82
15263;BME280;7733;51.554;13.590;2023-11-19T02:08:26;100200.09;;;7.28;89.21
15263;BME280;7733;51.554;13.590;2023-11-19T02:10:53;100188.84;;;7.09;90.66
15263;BME280;7733;51.554;13.590;2023-11-19T02:13:22;100183.59;;;7.14;89.23
15263;BME280;7733;51.554;13.590;2023-11-19T02:15:48;100178.34;;;7.30;90.02
15263;BME280;7733;51.554;13.590;2023-11-19T02:18:24;100174.94;;;7.06;90.05
15263;BME280;7733;51.554;13.590;2023-11-19T02:20:57;100188.88;;;7.01;91.52
15263;BME280;7733;51.554;13.590;2023-11-19T02:23:26;100190.50;;;7.28;89.61
15263;BME280;7733;51.554;13.590;2023-11-19T02:26:28;100181.84;;;7.25;89.47
15263;BME280;7733;51.554;13.590;2023-11-19T02:28:59;100171.38;;;7.31;89.93
15263;BME280;7733;51.554;13.590;2023-11-19T02:31:24;100162.59;;;7.47;88.61
15263;BME280;7733;51.554;13.590;2023-11-19T02:33:50;100158.28;;;7.39;88.48
15263;BME280;7733;51.554;13.590;2023-11-19T02:36:16;100163.41;;;7.61;87.97
15263;BME280;7733;51.554;13.590;2023-11-19T02:38:42;100154.72;;;7.55;88.17
15263;BME280;7733;51.554;13.590;2023-11-19T02:41:09;100159.16;;;7.42;88.78
15263;BME280;7733;51.554;13.590;2023-11-19T02:43:36;100143.28;;;7.74;88.06
15263;BME280;7733;51.554;13.590;2023-11-19T02:46:04;100144.38;;;7.41;88.96
15263;BME280;7733;51.554;13.590;2023-11-19T02:48:33;100134.91;;;7.22;90.06
15263;BME280;7733;51.554;13.590;2023-11-19T02:51:02;100120.88;;;7.43;89.25
15263;BME280;7733;51.554;13.590;2023-11-19T02:53:32;100111.31;;;7.40;88.56
15263;BME280;7733;51.554;13.590;2023-11-19T02:55:58;100099.06;;;7.51;89.19
15263;BME280;7733;51.554;13.590;2023-11-19T02:58:32;100083.41;;;7.51;88.81
15263;BME280;7733;51.554;13.590;2023-11-19T03:00:57;100075.66;;;7.39;89.20
15263;BME280;7733;51.554;13.590;2023-11-19T03:03:26;100080.72;;;7.65;88.48
15263;BME280;7733;51.554;13.590;2023-11-19T03:05:57;100090.53;;;7.25;88.99
15263;BME280;7733;51.554;13.590;2023-11-19T03:08:22;100085.22;;;7.43;89.16
15263;BME280;7733;51.554;13.590;2023-11-19T03:10:48;100067.94;;;7.25;90.37
15263;BME280;7733;51.554;13.590;2023-11-19T03:13:15;100055.72;;;7.32;89.94
15263;BME280;7733;51.554;13.590;2023-11-19T03:15:41;100047.81;;;7.44;89.82
15263;BME280;7733;51.554;13.590;2023-11-19T03:18:07;100030.44;;;7.39;89.53
15263;BME280;7733;51.554;13.590;2023-11-19T03:20:33;100020.06;;;7.31;89.61
15263;BME280;7733;51.554;13.590;2023-11-19T03:22:59;100022.44;;;7.65;88.54
15263;BME280;7733;51.554;13.590;2023-11-19T03:25:27;100029.34;;;7.70;87.82
15263;BME280;7733;51.554;13.590;2023-11-19T03:27:59;100023.72;;;6.99;91.04
15263;BME280;7733;51.554;13.590;2023-11-19T03:30:26;100013.00;;;7.45;90.23
15263;BME280;7733;51.554;13.590;2023-11-19T03:32:52;100011.47;;;7.15;90.57
15263;BME280;7733;51.554;13.590;2023-11-19T03:35:18;99996.59;;;7.31;91.06
15263;BME280;7733;51.554;13.590;2023-11-19T03:37:43;100003.53;;;7.32;89.43
15263;BME280;7733;51.554;13.590;2023-11-19T03:40:10;99992.16;;;7.41;89.86
15263;BME280;7733;51.554;13.590;2023-11-19T03:42:36;99992.00;;;7.59;89.72
15263;BME280;7733;51.554;13.590;2023-11-19T03:45:02;99987.09;;;7.19;90.54
15263;BME280;7733;51.554;13.590;2023-11-19T03:47:29;99974.72;;;7.49;88.93
15263;BME280;7733;51.554;13.590;2023-11-19T03:49:55;99979.16;;;7.36;89.54
15263;BME280;7733;51.554;13.590;2023-11-19T03:52:21;99977.50;;;7.26;89.53
15263;BME280;7733;51.554;13.590;2023-11-19T03:54:46;99975.66;;;7.37;89.58
15263;BME280;7733;51.554;13.590;2023-11-19T03:57:13;99971.28;;;7.39;89.82
15263;BME280;7733;51.554;13.590;2023-11-19T03:59:39;99965.00;;;7.65;90.39
15263;BME280;7733;51.554;13.590;2023-11-19T04:02:05;99964.38;;;7.35;90.37
15263;BME280;7733;51.554;13.590;2023-11-19T04:04:32;99958.13;;;7.54;89.28
15263;BME280;7733;51.554;13.590;2023-11-19T04:06:58;99943.16;;;7.75;89.49
15263;BME280;7733;51.554;13.590;2023-11-19T04:09:26;99941.13;;;8.03;87.46
15263;BME280;7733;51.554;13.590;2023-11-19T04:11:52;99930.22;;;7.66;89.00
15263;BME280;7733;51.554;13.590;2023-11-19T04:14:17;99909.13;;;7.84;88.56
15263;BME280;7733;51.554;13.590;2023-11-19T04:16:44;99924.13;;;7.60;89.47
15263;BME280;7733;51.554;13.590;2023-11-19T04:19:11;99919.56;;;7.85;89.30
15263;BME280;7733;51.554;13.590;2023-11-19T04:21:40;99930.28;;;7.56;90.39
15263;BME280;7733;51.554;13.590;2023-11-19T04:24:06;99914.56;;;7.62;90.96
15263;BME280;7733;51.554;13.590;2023-11-19T04:26:32;99907.66;;;7.55;90.86
15263;BME280;7733;51.554;13.590;2023-11-19T04:28:58;99917.97;;;7.69;90.24
15263;BME280;7733;51.554;13.590;2023-11-19T04:31:31;99917.38;;;7.43;91.41
15263;BME280;7733;51.554;13.590;2023-11-19T04:33:57;99920.66;;;7.65;91.04
15263;BME280;7733;51.554;13.590;2023-11-19T04:36:23;99916.50;;;7.39;92.45
15263;BME280;7733;51.554;13.590;2023-11-19T04:38:50;99899.13;;;7.38;91.85
15263;BME280;7733;51.554;13.590;2023-11-19T04:41:16;99903.31;;;7.54;91.69
15263;BME280;7733;51.554;13.590;2023-11-19T04:43:42;99885.09;;;7.51;92.99
15263;BME280;7733;51.554;13.590;2023-11-19T04:46:09;99882.38;;;7.60;92.83
15263;BME280;7733;51.554;13.590;2023-11-19T04:48:35;99879.41;;;7.07;95.19
15263;BME280;7733;51.554;13.590;2023-11-19T04:51:01;99863.22;;;7.65;93.08
15263;BME280;7733;51.554;13.590;2023-11-19T04:53:26;99863.75;;;7.10;95.32
15263;BME280;7733;51.554;13.590;2023-11-19T04:55:52;99859.97;;;7.44;95.32
15263;BME280;7733;51.554;13.590;2023-11-19T04:58:18;99843.22;;;7.60;94.48
15263;BME280;7733;51.554;13.590;2023-11-19T05:00:44;99846.03;;;7.41;95.78
15263;BME280;7733;51.554;13.590;2023-11-19T05:03:10;99844.28;;;7.46;94.86
15263;BME280;7733;51.554;13.590;2023-11-19T05:05:36;99849.81;;;7.12;97.16
15263;BME280;7733;51.554;13.590;2023-11-19T05:08:02;99846.38;;;7.09;97.54
15263;BME280;7733;51.554;13.590;2023-11-19T05:10:28;99839.47;;;7.05;96.72
15263;BME280;7733;51.554;13.590;2023-11-19T05:12:54;99825.88;;;7.61;95.47
15263;BME280;7733;51.554;13.590;2023-11-19T05:15:22;99826.06;;;7.41;96.15
15263;BME280;7733;51.554;13.590;2023-11-19T05:17:47;99822.50;;;7.48;96.28
15263;BME280;7733;51.554;13.590;2023-11-19T05:20:13;99816.47;;;7.45;96.47
15263;BME280;7733;51.554;13.590;2023-11-19T05:22:43;99803.06;;;7.74;96.05
15263;BME280;7733;51.554;13.590;2023-11-19T05:25:09;99795.31;;;7.69;95.91
15263;BME280;7733;51.554;13.590;2023-11-19T05:27:36;99799.00;;;7.50;96.16
15263;BME280;7733;51.554;13.590;2023-11-19T05:30:04;99791.84;;;7.69;95.38
15263;BME280;7733;51.554;13.590;2023-11-19T05:32:33;99783.53;;;7.31;97.17
15263;BME280;7733;51.554;13.590;2023-11-19T05:34:59;99784.63;;;7.87;96.15
15263;BME280;7733;51.554;13.590;2023-11-19T05:37:24;99782.44;;;7.52;96.52
15263;BME280;7733;51.554;13.590;2023-11-19T05:39:50;99774.69;;;7.48;97.59
15263;BME280;7733;51.554;13.590;2023-11-19T05:42:16;99777.97;;;7.65;96.19
15263;BME280;7733;51.554;13.590;2023-11-19T05:44:42;99766.75;;;7.55;97.10
15263;BME280;7733;51.554;13.590;2023-11-19T05:47:08;99775.66;;;7.36;98.60
15263;BME280;7733;51.554;13.590;2023-11-19T05:49:34;99771.94;;;7.58;98.29
15263;BME280;7733;51.554;13.590;2023-11-19T05:52:00;99770.75;;;7.09;99.84
15263;BME280;7733;51.554;13.590;2023-11-19T05:54:27;99765.72;;;7.69;97.44
15263;BME280;7733;51.554;13.590;2023-11-19T05:56:53;99763.66;;;7.23;100.00
15263;BME280;7733;51.554;13.590;2023-11-19T05:59:20;99748.59;;;7.46;99.21
15263;BME280;7733;51.554;13.590;2023-11-19T06:01:48;99735.53;;;7.49;99.12
15263;BME280;7733;51.554;13.590;2023-11-19T06:04:14;99718.84;;;7.59;99.48
15263;BME280;7733;51.554;13.590;2023-11-19T06:06:39;99714.94;;;7.25;99.74
15263;BME280;7733;51.554;13.590;2023-11-19T06:09:06;99714.75;;;7.39;99.96
15263;BME280;7733;51.554;13.590;2023-11-19T06:11:33;99724.78;;;7.72;98.90
15263;BME280;7733;51.554;13.590;2023-11-19T06:14:01;99737.38;;;7.41;100.00
15263;BME280;7733;51.554;13.590;2023-11-19T06:16:28;99739.91;;;7.46;100.00
15263;BME280;7733;51.554;13.590;2023-11-19T06:18:54;99738.06;;;7.54;100.00
15263;BME280;7733;51.554;13.590;2023-11-19T06:21:20;99739.59;;;7.72;98.68
15263;BME280;7733;51.554;13.590;2023-11-19T06:23:45;99724.97;;;7.58;98.91
15263;BME280;7733;51.554;13.590;2023-11-19T06:26:11;99716.13;;;7.69;98.88
15263;BME280;7733;51.554;13.590;2023-11-19T06:28:37;99718.06;;;7.54;100.00
15263;BME280;7733;51.554;13.590;2023-11-19T06:31:03;99704.28;;;7.43;100.00
15263;BME280;7733;51.554;13.590;2023-11-19T06:33:29;99715.13;;;7.79;100.00
15263;BME280;7733;51.554;13.590;2023-11-19T06:35:55;99714.53;;;7.58;100.00
15263;BME280;7733;51.554;13.590;2023-11-19T06:38:20;99722.88;;;7.86;99.93
15263;BME280;7733;51.554;13.590;2023-11-19T06:40:46;99719.84;;;8.14;98.49
15263;BME280;7733;51.554;13.590;2023-11-19T06:43:12;99721.59;;;8.13;97.15
15263;BME280;7733;51.554;13.590;2023-11-19T06:45:39;99727.41;;;7.72;98.84
15263;BME280;7733;51.554;13.590;2023-11-19T06:48:05;99714.59;;;8.15;98.08
15263;BME280;7733;51.554;13.590;2023-11-19T06:50:32;99709.19;;;8.28;96.66
15263;BME280;7733;51.554;13.590;2023-11-19T06:52:58;99703.25;;;8.16;97.61
15263;BME280;7733;51.554;13.590;2023-11-19T06:55:24;99708.00;;;7.90;97.96
15263;BME280;7733;51.554;13.590;2023-11-19T06:57:50;99709.81;;;7.86;99.31
15263;BME280;7733;51.554;13.590;2023-11-19T07:00:16;99712.00;;;8.14;98.99
15263;BME280;7733;51.554;13.590;2023-11-19T07:02:42;99700.38;;;8.33;97.73
15263;BME280;7733;51.554;13.590;2023-11-19T07:05:10;99702.94;;;7.81;98.94
15263;BME280;7733;51.554;13.590;2023-11-19T07:07:37;99706.38;;;7.83;100.00
15263;BME280;7733;51.554;13.590;2023-11-19T07:10:03;99696.31;;;8.15;99.31
15263;BME280;7733;51.554;13.590;2023-11-19T07:12:30;99697.25;;;7.48;100.00
15263;BME280;7733;51.554;13.590;2023-11-19T07:14:56;99700.53;;;7.66;100.00
15263;BME280;7733;51.554;13.590;2023-11-19T07:17:22;99700.19;;;7.90;100.00
15263;BME280;7733;51.554;13.590;2023-11-19T07:19:50;99706.59;;;7.66;100.00
15263;BME280;7733;51.554;13.590;2023-11-19T07:22:16;99690.47;;;7.98;100.00
15263;BME280;7733;51.554;13.590;2023-11-19T07:24:42;99697.88;;;7.69;100.00
15263;BME280;7733;51.554;13.590;2023-11-19T07:27:08;99696.63;;;7.94;100.00
15263;BME280;7733;51.554;13.590;2023-11-19T07:29:35;99697.16;;;8.17;100.00
15263;BME280;7733;51.554;13.590;2023-11-19T07:32:01;99688.03;;;7.87;100.00
15263;BME280;7733;51.554;13.590;2023-11-19T07:34:27;99697.63;;;7.87;100.00
15263;BME280;7733;51.554;13.590;2023-11-19T07:36:54;99683.47;;;8.03;100.00
15263;BME280;7733;51.554;13.590;2023-11-19T07:39:22;99692.97;;;8.07;100.00
15263;BME280;7733;51.554;13.590;2023-11-19T07:41:49;99688.41;;;8.20;100.00
15263;BME280;7733;51.554;13.590;2023-11-19T07:44:15;99695.47;;;8.13;100.00
15263;BME280;7733;51.554;13.590;2023-11-19T07:46:41;99685.75;;;8.24;100.00
15263;BME280;7733;51.554;13.590;2023-11-19T07:49:08;99696.94;;;8.31;100.00
15263;BME280;7733;51.554;13.590;2023-11-19T07:51:35;99691.44;;;8.49;100.00
15263;BME280;7733;51.554;13.590;2023-11-19T07:54:01;99696.84;;;8.39;100.00
15263;BME280;7733;51.554;13.590;2023-11-19T07:56:27;99692.84;;;8.70;100.00
15263;BME280;7733;51.554;13.590;2023-11-19T07:58:53;99691.22;;;9.11;100.00
15263;BME280;7733;51.554;13.590;2023-11-19T08:01:18;99686.91;;;9.08;99.96
15263;BME280;7733;51.554;13.590;2023-11-19T08:03:44;99695.47;;;9.15;99.94
15263;BME280;7733;51.554;13.590;2023-11-19T08:06:10;99700.72;;;8.67;100.00
15263;BME280;7733;51.554;13.590;2023-11-19T08:08:36;99702.16;;;8.85;100.00
15263;BME280;7733;51.554;13.590;2023-11-19T08:11:04;99695.72;;;9.03;100.00
15263;BME280;7733;51.554;13.590;2023-11-19T08:13:30;99692.94;;;9.12;100.00
15263;BME280;7733;51.554;13.590;2023-11-19T08:15:58;99694.78;;;9.07;100.00
15263;BME280;7733;51.554;13.590;2023-11-19T08:18:24;99685.88;;;9.15;100.00
15263;BME280;7733;51.554;13.590;2023-11-19T08:20:50;99688.53;;;9.56;100.00
15263;BME280;7733;51.554;13.590;2023-11-19T08:23:19;99682.91;;;9.74;100.00
15263;BME280;7733;51.554;13.590;2023-11-19T08:25:46;99684.16;;;9.56;100.00
15263;BME280;7733;51.554;13.590;2023-11-19T08:28:12;99684.84;;;9.66;100.00
15263;BME280;7733;51.554;13.590;2023-11-19T08:30:38;99674.88;;;9.83;100.00
15263;BME280;7733;51.554;13.590;2023-11-19T08:33:04;99680.16;;;9.80;100.00
15263;BME280;7733;51.554;13.590;2023-11-19T08:35:31;99676.25;;;9.98;100.00
15263;BME280;7733;51.554;13.590;2023-11-19T08:37:57;99678.16;;;9.91;100.00
15263;BME280;7733;51.554;13.590;2023-11-19T08:40:24;99688.03;;;10.17;100.00
15263;BME280;7733;51.554;13.590;2023-11-19T08:42:51;99677.63;;;10.14;100.00
15263;BME280;7733;51.554;13.590;2023-11-19T08:45:17;99688.97;;;10.15;100.00
15263;BME280;7733;51.554;13.590;2023-11-19T08:47:43;99683.31;;;10.33;100.00
15263;BME280;7733;51.554;13.590;2023-11-19T08:50:11;99680.75;;;10.31;100.00
15263;BME280;7733;51.554;13.590;2023-11-19T08:52:37;99680.75;;;10.31;100.00
15263;BME280;7733;51.554;13.590;2023-11-19T08:55:04;99678.75;;;10.43;100.00
15263;BME280;7733;51.554;13.590;2023-11-19T08:57:31;99676.25;;;10.71;100.00
15263;BME280;7733;51.554;13.590;2023-11-19T08:59:58;99679.13;;;10.61;100.00
15263;BME280;7733;51.554;13.590;2023-11-19T09:02:25;99670.31;;;10.96;100.00
15263;BME280;7733;51.554;13.590;2023-11-19T09:04:50;99674.56;;;11.02;100.00
15263;BME280;7733;51.554;13.590;2023-11-19T09:07:16;99675.28;;;11.07;100.00
15263;BME280;7733;51.554;13.590;2023-11-19T09:09:42;99680.06;;;11.24;100.00
15263;BME280;7733;51.554;13.590;2023-11-19T09:12:07;99683.25;;;11.35;100.00
15263;BME280;7733;51.554;13.590;2023-11-19T09:14:33;99683.00;;;11.44;100.00
15263;BME280;7733;51.554;13.590;2023-11-19T09:16:59;99683.63;;;11.52;100.00
15263;BME280;7733;51.554;13.590;2023-11-19T09:19:25;99688.72;;;11.57;100.00
15263;BME280;7733;51.554;13.590;2023-11-19T09:21:54;99685.19;;;11.58;100.00
15263;BME280;7733;51.554;13.590;2023-11-19T09:24:20;99683.25;;;11.65;100.00
15263;BME280;7733;51.554;13.590;2023-11-19T09:26:46;99691.56;;;11.80;100.00
15263;BME280;7733;51.554;13.590;2023-11-19T09:29:12;99678.41;;;11.82;100.00
15263;BME280;7733;51.554;13.590;2023-11-19T09:31:40;99688.81;;;11.85;100.00
15263;BME280;7733;51.554;13.590;2023-11-19T09:34:06;99692.47;;;11.78;100.00
15263;BME280;7733;51.554;13.590;2023-11-19T09:36:32;99687.22;;;11.78;100.00
15263;BME280;7733;51.554;13.590;2023-11-19T09:38:57;99680.94;;;11.85;100.00
15263;BME280;7733;51.554;13.590;2023-11-19T09:41:26;99685.69;;;12.02;100.00
15263;BME280;7733;51.554;13.590;2023-11-19T09:43:54;99691.50;;;12.11;100.00
15263;BME280;7733;51.554;13.590;2023-11-19T09:46:21;99681.69;;;12.16;100.00
15263;BME280;7733;51.554;13.590;2023-11-19T09:48:53;99679.13;;;12.41;100.00
15263;BME280;7733;51.554;13.590;2023-11-19T09:51:20;99681.34;;;12.27;100.00
15263;BME280;7733;51.554;13.590;2023-11-19T09:53:48;99678.66;;;12.55;100.00
15263;BME280;7733;51.554;13.590;2023-11-19T09:56:15;99675.53;;;12.70;100.00
15263;BME280;7733;51.554;13.590;2023-11-19T09:58:42;99672.38;;;12.59;100.00
15263;BME280;7733;51.554;13.590;2023-11-19T10:01:08;99671.66;;;12.80;100.00
15263;BME280;7733;51.554;13.590;2023-11-19T10:03:39;99670.25;;;12.70;99.57
15263;BME280;7733;51.554;13.590;2023-11-19T10:06:07;99664.53;;;12.84;99.07
15263;BME280;7733;51.554;13.590;2023-11-19T10:08:36;99669.00;;;12.82;98.57
15263;BME280;7733;51.554;13.590;2023-11-19T10:11:03;99674.78;;;12.92;97.73
15263;BME280;7733;51.554;13.590;2023-11-19T10:13:29;99669.50;;;13.17;98.01
15263;BME280;7733;51.554;13.590;2023-11-19T10:15:58;99660.97;;;13.10;96.95
15263;BME280;7733;51.554;13.590;2023-11-19T10:18:27;99659.06;;;13.14;97.26
15263;BME280;7733;51.554;13.590;2023-11-19T10:20:53;99655.81;;;13.07;96.91
15263;BME280;7733;51.554;13.590;2023-11-19T10:23:20;99655.25;;;13.24;96.44
15263;BME280;7733;51.554;13.590;2023-11-19T10:25:46;99647.97;;;13.30;95.72
15263;BME280;7733;51.554;13.590;2023-11-19T10:28:15;99637.44;;;13.76;94.56
15263;BME280;7733;51.554;13.590;2023-11-19T10:30:44;99657.69;;;13.52;94.63
15263;BME280;7733;51.554;13.590;2023-11-19T10:33:13;99655.91;;;13.52;94.38
15263;BME280;7733;51.554;13.590;2023-11-19T10:35:57;99652.47;;;13.95;92.77
15263;BME280;7733;51.554;13.590;2023-11-19T10:38:25;99659.09;;;13.60;93.62
15263;BME280;7733;51.554;13.590;2023-11-19T10:40:52;99655.28;;;13.69;93.13
15263;BME280;7733;51.554;13.590;2023-11-19T10:43:19;99647.84;;;13.57;92.33
15263;BME280;7733;51.554;13.590;2023-11-19T10:45:47;99638.78;;;13.64;91.85
15263;BME280;7733;51.554;13.590;2023-11-19T10:48:12;99638.59;;;13.68;91.88
15263;BME280;7733;51.554;13.590;2023-11-19T10:50:41;99640.16;;;13.96;90.78
15263;BME280;7733;51.554;13.590;2023-11-19T10:53:10;99637.38;;;13.99;90.24
15263;BME280;7733;51.554;13.590;2023-11-19T10:55:39;99633.75;;;13.58;89.97
15263;BME280;7733;51.554;13.590;2023-11-19T10:58:09;99631.03;;;13.59;90.07
15263;BME280;7733;51.554;13.590;2023-11-19T11:00:48;99643.34;;;13.59;89.64
15263;BME280;7733;51.554;13.590;2023-11-19T11:03:29;99636.34;;;13.81;89.56
15263;BME280;7733;51.554;13.590;2023-11-19T11:05:57;99627.94;;;13.72;88.25
15263;BME280;7733;51.554;13.590;2023-11-19T11:08:23;99628.03;;;13.92;87.78
15263;BME280;7733;51.554;13.590;2023-11-19T11:10:54;99630.00;;;13.87;87.82
15263;BME280;7733;51.554;13.590;2023-11-19T11:13:23;99634.53;;;13.83;88.33
15263;BME280;7733;51.554;13.590;2023-11-19T11:15:50;99637.25;;;13.80;88.46
15263;BME280;7733;51.554;13.590;2023-11-19T11:18:17;99639.75;;;13.85;87.90
15263;BME280;7733;51.554;13.590;2023-11-19T11:20:47;99646.44;;;13.70;89.11
15263;BME280;7733;51.554;13.590;2023-11-19T11:32:58;99637.72;;;13.46;92.45
15263;BME280;7733;51.554;13.590;2023-11-19T11:35:42;99636.34;;;13.81;92.14
15263;BME280;7733;51.554;13.590;2023-11-19T11:38:14;99625.97;;;13.77;91.67
15263;BME280;7733;51.554;13.590;2023-11-19T11:40:41;99628.63;;;13.77;91.37
15263;BME280;7733;51.554;13.590;2023-11-19T11:49:07;99606.91;;;13.70;90.44
15263;BME280;7733;51.554;13.590;2023-11-19T11:51:57;99614.69;;;13.73;89.63
15263;BME280;7733;51.554;13.590;2023-11-19T11:57:07;99635.13;;;13.68;89.24
15263;BME280;7733;51.554;13.590;2023-11-19T12:02:09;99637.78;;;13.45;88.94
15263;BME280;7733;51.554;13.590;2023-11-19T12:04:42;99639.19;;;13.30;89.10
15263;BME280;7733;51.554;13.590;2023-11-19T12:07:23;99630.25;;;13.57;87.57
15263;BME280;7733;51.554;13.590;2023-11-19T12:10:09;99628.38;;;13.37;86.94
15263;BME280;7733;51.554;13.590;2023-11-19T12:12:37;99630.16;;;13.37;87.05
15263;BME280;7733;51.554;13.590;2023-11-19T12:15:10;99619.16;;;13.26;87.41
15263;BME280;7733;51.554;13.590;2023-11-19T12:17:48;99610.34;;;13.50;87.12
15263;BME280;7733;51.554;13.590;2023-11-19T12:20:19;99604.03;;;13.31;87.32
15263;BME280;7733;51.554;13.590;2023-11-19T12:22:47;99612.75;;;13.33;86.94
15263;BME280;7733;51.554;13.590;2023-11-19T12:25:16;99602.09;;;13.36;87.61
15263;BME280;7733;51.554;13.590;2023-11-19T12:27:48;99604.50;;;13.42;87.04
15263;BME280;7733;51.554;13.590;2023-11-19T12:30:25;99610.34;;;13.50;87.19
15263;BME280;7733;51.554;13.590;2023-11-19T12:32:52;99611.34;;;13.69;86.79
15263;BME280;7733;51.554;13.590;2023-11-19T12:35:23;99618.81;;;13.35;88.32
15263;BME280;7733;51.554;13.590;2023-11-19T12:37:50;99607.56;;;13.53;87.05
15263;BME280;7733;51.554;13.590;2023-11-19T12:40:18;99601.91;;;13.64;87.15
15263;BME280;7733;51.554;13.590;2023-11-19T12:42:54;99609.09;;;13.59;87.72
15263;BME280;7733;51.554;13.590;2023-11-19T12:45:20;99597.63;;;13.83;86.81
15263;BME280;7733;51.554;13.590;2023-11-19T12:47:48;99606.41;;;13.60;87.79
15263;BME280;7733;51.554;13.590;2023-11-19T12:50:16;99605.34;;;13.88;86.99
15263;BME280;7733;51.554;13.590;2023-11-19T12:52:58;99598.28;;;14.10;86.22
15263;BME280;7733;51.554;13.590;2023-11-19T12:55:26;99611.72;;;14.04;85.94
15263;BME280;7733;51.554;13.590;2023-11-19T12:57:53;99597.94;;;14.18;86.02
15263;BME280;7733;51.554;13.590;2023-11-19T13:00:23;99601.50;;;14.17;85.29
15263;BME280;7733;51.554;13.590;2023-11-19T13:02:51;99606.38;;;14.06;85.55
15263;BME280;7733;51.554;13.590;2023-11-19T13:05:32;99596.84;;;14.23;85.35
15263;BME280;7733;51.554;13.590;2023-11-19T13:08:09;99604.47;;;14.09;85.19
15263;BME280;7733;51.554;13.590;2023-11-19T13:10:54;99608.38;;;13.99;85.70
15263;BME280;7733;51.554;13.590;2023-11-19T13:13:20;99598.59;;;14.03;85.07
15263;BME280;7733;51.554;13.590;2023-11-19T13:15:46;99600.97;;;14.09;85.26
15263;BME280;7733;51.554;13.590;2023-11-19T13:18:13;99594.00;;;14.28;84.45
15263;BME280;7733;51.554;13.590;2023-11-19T13:20:41;99594.47;;;14.38;83.87
15263;BME280;7733;51.554;13.590;2023-11-19T13:23:07;99595.25;;;14.19;84.67
15263;BME280;7733;51.554;13.590;2023-11-19T13:25:33;99600.50;;;14.19;84.32